Sligo Airport - TAF
(Terminal Area Forecast)

Issued at 10:06 UTC on Tue. 14-Aug-18

--- METARS(SA) ---

METAR EISG(SLIGO) 141000Z 22011KT 9999 BKN017 OVC021 17/15 Q1012 =

--- TAFS() ---

TAF EISG(SLIGO) 140800Z 1409/1418 22007KT 9999 BKN025 OVC035 TEMPO

1409/1418 5000 -RADZ BKN008 =

--- SIGMETS(WS) ---

IE - No VALID SIGMETS/Warnings FOR THIS AREA

--- SIGMETS Volcanic(WV) ---

IE - No VALID SIGMETS/Warnings FOR THIS AREA

--- SIGMETS(WS) ---

EGPX SIGMET 01 VALID 140720/141000 EGRR- EGPX

SCOTTISH FIR EMBD TS FCST WI N5839 W00645 - N5710 W00645 - N5710

W00736 - N5839 W00736 - N5839 W00645 TOP FL260 MOV NE 35KT NC=

Sligo Airport - METARs

Latest METARs for Sligo and Donegal Airports - updated every 30 mins